Kanesville, Utah
Current Conditions -  °F | °C
As of 5:53 PM on Friday 28 Nov 2014 (Local Time) from KOGD Reporting Station
Clear Clear  
Wind Chill: 55°   Ceiling: Unl
Heat Index: 55°   Visibility: 10mi
Dew Point: 19°   Wind: 16mph
Humidity: 24%   Direction: 170°S
Pressure: 29.81"   Gusts: NA
Location:  41.1783°N, 112.12°W
Report Text: KOGD 290053Z AUTO 17014KT 10SM CLR 13/M07 A2981 RMK AO2 SLP073 T01281072 TSNO
Loading
Personal Weather Stations






























Interactive Weather Map New forecast layout! Learn more

10-Day Weather Forecast

Advertisements
Track Severe Weather on mobile